Time;durP1;ratioP1;P1;durP2;ratioP2;P2;SDS_P1;SDS_P2;PMS_P1;PMS_P2;Temp;Humidity;BMP_temperature;BMP_pressure;BME280_temperature;BME280_humidity;BME280_pressure;Samples;Min_cycle;Max_cycle;Signal;HPM_P1;HPM_P2
2022/09/01 00:01:20;;;;;;;51.87;47.20;;;15.60;99.90;;;;;;5039881;28;20444;-74
2022/09/01 00:03:51;;;;;;;54.23;49.10;;;15.60;99.90;;;;;;5038393;28;20471;-74
2022/09/01 00:06:21;;;;;;;55.43;50.57;;;15.60;99.90;;;;;;5037939;28;20523;-76
2022/09/01 00:08:48;;;;;;;53.17;48.30;;;15.50;99.90;;;;;;5038807;28;20444;-75
2022/09/01 00:11:17;;;;;;;52.77;48.03;;;15.50;99.90;;;;;;5039562;28;20445;-74
2022/09/01 00:13:44;;;;;;;56.27;51.17;;;15.50;99.90;;;;;;5039658;28;20440;-76
2022/09/01 00:16:12;;;;;;;55.63;50.97;;;15.50;99.90;;;;;;5038408;28;21306;-74
2022/09/01 00:18:40;;;;;;;54.80;49.80;;;15.40;99.90;;;;;;5037102;28;20496;-73
2022/09/01 00:21:09;;;;;;;55.50;50.10;;;15.40;99.90;;;;;;5038519;28;20440;-76
2022/09/01 00:23:35;;;;;;;54.93;49.50;;;15.40;99.90;;;;;;5039646;28;21352;-76
2022/09/01 00:26:04;;;;;;;56.13;51.33;;;15.40;99.90;;;;;;5038089;28;20443;-76
2022/09/01 00:41:29;;;;;;;54.33;49.83;;;15.40;99.90;;;;;;5017107;28;20463;-76
2022/09/01 00:43:58;;;;;;;52.43;48.10;;;15.30;99.90;;;;;;5029534;28;20456;-76
2022/09/01 00:46:27;;;;;;;53.37;48.60;;;15.40;99.90;;;;;;5029543;28;20962;-76
2022/09/01 00:49:00;;;;;;;53.60;48.20;;;15.40;99.90;;;;;;5029479;28;20480;-75
2022/09/01 00:51:28;;;;;;;54.07;49.20;;;15.30;99.90;;;;;;5029495;28;20448;-76
2022/09/01 00:53:58;;;;;;;55.17;50.27;;;15.30;99.90;;;;;;5029339;28;21141;-75
2022/09/01 00:56:26;;;;;;;52.97;48.37;;;15.30;99.90;;;;;;5029343;28;20491;-73
2022/09/01 00:58:54;;;;;;;56.67;51.67;;;15.30;99.90;;;;;;5029484;28;20476;-73
2022/09/01 01:01:22;;;;;;;56.90;52.10;;;15.20;99.90;;;;;;5029738;28;20460;-74
2022/09/01 01:03:48;;;;;;;56.83;51.83;;;15.20;99.90;;;;;;5029583;28;20463;-75
2022/09/01 01:06:18;;;;;;;60.70;55.50;;;15.20;99.90;;;;;;5033259;28;20849;-74
2022/09/01 01:08:50;;;;;;;57.37;52.17;;;15.20;99.90;;;;;;5033313;28;20444;-74
2022/09/01 01:11:18;;;;;;;53.43;49.00;;;15.00;99.90;;;;;;5033630;28;20583;-74
2022/09/01 01:13:53;;;;;;;54.37;49.43;;;15.00;99.90;;;;;;5033256;28;20456;-74
2022/09/01 01:16:21;;;;;;;55.10;50.57;;;15.00;99.90;;;;;;5033502;28;20479;-74
2022/09/01 01:18:48;;;;;;;53.07;48.40;;;15.00;99.90;;;;;;5033594;28;20988;-74
2022/09/01 01:24:10;;;;;;;58.90;53.13;;;14.90;99.90;;;;;;5033527;28;20839;-74
2022/09/01 01:26:38;;;;;;;56.37;50.90;;;15.00;99.90;;;;;;5033110;28;20460;-74
2022/09/01 01:29:08;;;;;;;57.17;51.80;;;15.00;99.90;;;;;;5033363;28;20946;-74
2022/09/01 01:31:35;;;;;;;59.60;53.77;;;14.90;99.90;;;;;;5033415;28;20456;-74
2022/09/01 01:34:04;;;;;;;57.83;52.73;;;14.90;99.90;;;;;;5033143;28;20449;-74
2022/09/01 01:36:35;;;;;;;56.43;51.53;;;14.90;99.90;;;;;;5032859;28;20531;-75
2022/09/01 01:39:06;;;;;;;59.10;53.40;;;14.90;99.90;;;;;;5033003;28;20527;-73
2022/09/01 01:41:34;;;;;;;57.67;52.37;;;15.00;99.90;;;;;;5032956;28;20481;-74
2022/09/01 01:44:04;;;;;;;62.07;55.70;;;14.90;99.90;;;;;;5032693;28;20950;-74
2022/09/01 01:46:32;;;;;;;63.23;57.20;;;14.80;99.90;;;;;;5032763;28;20456;-75
2022/09/01 01:49:00;;;;;;;64.37;58.47;;;14.70;99.90;;;;;;5032755;28;20452;-75
2022/09/01 01:51:29;;;;;;;59.73;54.17;;;14.70;99.90;;;;;;5032697;28;20453;-75
2022/09/01 01:53:58;;;;;;;58.97;53.73;;;14.70;99.90;;;;;;5032609;28;20453;-75
2022/09/01 01:56:25;;;;;;;56.70;51.70;;;14.60;99.90;;;;;;5032475;28;20499;-75
2022/09/01 01:58:53;;;;;;;63.60;57.70;;;14.60;99.90;;;;;;5032498;28;20449;-75
2022/09/01 02:01:23;;;;;;;64.27;58.17;;;14.50;99.90;;;;;;5032787;28;20854;-75
2022/09/01 02:03:51;;;;;;;66.40;60.40;;;14.50;99.90;;;;;;5032671;28;20471;-75
2022/09/01 02:06:23;;;;;;;62.30;56.47;;;14.50;99.90;;;;;;5032530;28;20453;-75
2022/09/01 02:08:51;;;;;;;63.53;57.77;;;14.40;99.90;;;;;;5032675;28;20453;-75
2022/09/01 02:11:18;;;;;;;65.63;59.37;;;14.50;99.90;;;;;;5032451;28;21028;-74
2022/09/01 02:13:45;;;;;;;60.23;54.47;;;14.50;99.90;;;;;;5032193;28;20814;-75
2022/09/01 02:16:13;;;;;;;63.57;57.90;;;14.40;99.90;;;;;;5031572;28;20844;-75
2022/09/01 02:18:46;;;;;;;62.40;56.80;;;14.50;99.90;;;;;;5032099;28;20472;-75
2022/09/01 02:21:18;;;;;;;63.73;57.83;;;14.50;99.90;;;;;;5032206;28;20453;-75
2022/09/01 02:23:46;;;;;;;60.33;55.00;;;14.50;99.90;;;;;;5032030;28;20459;-75
2022/09/01 02:26:13;;;;;;;60.00;54.60;;;14.50;99.90;;;;;;5031856;28;20445;-75
2022/09/01 02:28:41;;;;;;;57.13;52.20;;;14.50;99.90;;;;;;5031954;28;20934;-75
2022/09/01 02:31:09;;;;;;;57.57;52.10;;;14.50;99.90;;;;;;5032023;28;20461;-75
2022/09/01 02:33:39;;;;;;;57.53;52.60;;;14.50;99.90;;;;;;5032006;28;20453;-75
2022/09/01 02:36:12;;;;;;;55.50;50.93;;;14.60;99.90;;;;;;5032164;28;20493;-76
2022/09/01 02:38:43;;;;;;;57.40;52.20;;;14.60;99.90;;;;;;5031840;28;20910;-74
2022/09/01 02:41:10;;;;;;;58.17;53.13;;;14.60;99.90;;;;;;5031956;28;20480;-75
2022/09/01 02:43:38;;;;;;;60.23;54.77;;;14.60;99.90;;;;;;5032103;28;20552;-75
2022/09/01 02:46:06;;;;;;;54.10;49.33;;;14.60;99.90;;;;;;5032475;28;20576;-75
2022/09/01 02:48:39;;;;;;;56.03;51.03;;;14.60;99.90;;;;;;5032247;28;20475;-76
2022/09/01 02:51:09;;;;;;;57.60;52.70;;;14.60;99.90;;;;;;5032354;28;20449;-74
2022/09/01 02:53:38;;;;;;;57.83;52.73;;;14.60;99.90;;;;;;5032392;28;20806;-75
2022/09/01 02:56:10;;;;;;;56.37;51.27;;;14.60;99.90;;;;;;5031960;28;20869;-75
2022/09/01 02:58:44;;;;;;;58.87;53.57;;;14.50;99.90;;;;;;5031633;28;20966;-75
2022/09/01 03:01:15;;;;;;;55.83;51.03;;;14.60;99.90;;;;;;5031316;28;20476;-75
2022/09/01 03:03:42;;;;;;;58.70;53.57;;;14.60;99.90;;;;;;5031375;28;20453;-75
2022/09/01 03:06:11;;;;;;;58.37;53.03;;;14.60;99.90;;;;;;5031449;28;20444;-74
2022/09/01 03:08:38;;;;;;;61.07;55.57;;;14.60;99.90;;;;;;5031169;28;20547;-75
2022/09/01 03:11:09;;;;;;;61.73;55.70;;;14.50;99.90;;;;;;5031260;28;20548;-73
2022/09/01 03:13:37;;;;;;;66.70;60.57;;;14.40;99.90;;;;;;5031359;28;20960;-73
2022/09/01 03:16:04;;;;;;;65.93;59.67;;;14.40;99.90;;;;;;5031329;28;20485;-73
2022/09/01 03:18:31;;;;;;;64.40;58.43;;;14.30;99.90;;;;;;5031179;28;20448;-74
2022/09/01 03:20:59;;;;;;;64.77;58.80;;;14.30;99.90;;;;;;5030987;28;20552;-75
2022/09/01 03:23:27;;;;;;;64.30;58.20;;;14.30;99.90;;;;;;5030866;28;20445;-75
2022/09/01 03:25:54;;;;;;;68.10;61.90;;;14.30;99.90;;;;;;5030862;28;20934;-74
2022/09/01 03:28:21;;;;;;;59.90;54.83;;;14.30;99.90;;;;;;5030429;28;20503;-74
2022/09/01 03:30:50;;;;;;;63.57;57.87;;;14.40;99.90;;;;;;5031134;28;20457;-74
2022/09/01 03:33:18;;;;;;;61.93;56.33;;;14.30;99.90;;;;;;5031156;28;20912;-72
2022/09/01 03:35:45;;;;;;;64.60;58.60;;;14.30;99.90;;;;;;5030657;28;20492;-73
2022/09/01 03:38:21;;;;;;;62.20;56.30;;;14.20;99.90;;;;;;5030810;28;20665;-73
2022/09/01 03:40:51;;;;;;;62.03;56.07;;;14.10;99.90;;;;;;5030831;28;20567;-73
2022/09/01 03:43:22;;;;;;;67.07;60.77;;;14.20;99.90;;;;;;5030700;28;20449;-74
2022/09/01 03:45:49;;;;;;;63.77;57.97;;;14.10;99.90;;;;;;5030883;28;20862;-73
2022/09/01 03:48:15;;;;;;;61.57;55.67;;;14.20;99.90;;;;;;5030495;28;20453;-73
2022/09/01 03:50:45;;;;;;;60.97;55.03;;;14.10;99.90;;;;;;5030700;28;20484;-75
2022/09/01 03:53:13;;;;;;;60.43;54.87;;;14.10;99.90;;;;;;5031000;28;20457;-75
2022/09/01 03:55:40;;;;;;;64.10;58.00;;;14.00;99.90;;;;;;5030443;28;20463;-74
2022/09/01 03:58:11;;;;;;;63.63;57.83;;;14.00;99.90;;;;;;5030687;28;20811;-73
2022/09/01 04:00:41;;;;;;;61.23;55.63;;;14.00;99.90;;;;;;5030725;28;20463;-74
2022/09/01 04:03:11;;;;;;;65.50;58.57;;;14.00;99.90;;;;;;5030421;28;20453;-73
2022/09/01 04:05:41;;;;;;;63.93;57.70;;;14.00;99.90;;;;;;5030260;28;20506;-74
2022/09/01 04:08:11;;;;;;;62.17;55.90;;;14.10;99.90;;;;;;5030108;28;20452;-74
2022/09/01 04:10:43;;;;;;;61.17;55.70;;;14.20;99.90;;;;;;5029944;28;20464;-75
2022/09/01 04:13:12;;;;;;;61.93;56.57;;;14.20;99.90;;;;;;5029813;28;20460;-73
2022/09/01 04:15:39;;;;;;;62.27;56.60;;;14.20;99.90;;;;;;5029811;28;20468;-74
2022/09/01 04:18:08;;;;;;;79.77;73.40;;;14.30;99.90;;;;;;5029994;28;20453;-74
2022/09/01 04:20:47;;;;;;;74.87;68.53;;;14.20;99.90;;;;;;5030042;28;20864;-74
2022/09/01 04:23:19;;;;;;;61.53;55.90;;;14.20;99.90;;;;;;5029742;28;21036;-72
2022/09/01 04:25:49;;;;;;;61.73;56.23;;;14.30;99.90;;;;;;5029766;28;20453;-74
2022/09/01 04:28:21;;;;;;;61.30;55.10;;;14.20;99.90;;;;;;5029668;28;20457;-73
2022/09/01 04:30:50;;;;;;;63.53;57.00;;;14.30;99.90;;;;;;5030067;28;20515;-74
2022/09/01 04:33:17;;;;;;;62.57;56.67;;;14.30;99.90;;;;;;5029831;28;20457;-74
2022/09/01 04:35:44;;;;;;;63.13;56.93;;;14.30;99.90;;;;;;5029697;28;20489;-75
2022/09/01 04:38:13;;;;;;;63.07;57.33;;;14.20;99.90;;;;;;5029473;28;20484;-76
2022/09/01 04:40:40;;;;;;;62.47;56.70;;;14.30;99.90;;;;;;5029468;28;20516;-76
2022/09/01 04:43:07;;;;;;;66.30;60.33;;;14.30;99.90;;;;;;5029654;28;20453;-75
2022/09/01 04:45:36;;;;;;;68.20;61.70;;;14.30;99.90;;;;;;5029890;28;20457;-76
2022/09/01 04:48:04;;;;;;;64.57;57.67;;;14.40;99.90;;;;;;5029703;28;20444;-75
2022/09/01 04:50:31;;;;;;;68.50;62.00;;;14.20;99.90;;;;;;5029507;28;20449;-75
2022/09/01 04:52:59;;;;;;;63.70;57.87;;;14.20;99.90;;;;;;5029346;28;20709;-77
2022/09/01 04:55:28;;;;;;;67.57;60.53;;;14.30;99.90;;;;;;5029545;28;20515;-72
2022/09/01 04:57:57;;;;;;;86.27;78.47;;;14.40;99.90;;;;;;5029407;28;20534;-71
2022/09/01 05:00:26;;;;;;;89.30;81.90;;;14.30;99.90;;;;;;5029662;28;20448;-71
2022/09/01 05:03:03;;;;;;;96.83;88.80;;;14.30;99.90;;;;;;5029498;28;20943;-72
2022/09/01 05:05:38;;;;;;;91.63;83.40;;;14.30;99.90;;;;;;5027508;28;20455;-74
2022/09/01 05:08:05;;;;;;;89.67;81.83;;;14.50;99.90;;;;;;5029991;28;20456;-73
2022/09/01 05:10:33;;;;;;;90.10;81.80;;;14.40;99.90;;;;;;5029994;28;20801;-75
2022/09/01 05:13:00;;;;;;;88.37;80.60;;;14.40;99.90;;;;;;5029704;28;20467;-73
2022/09/01 05:15:26;;;;;;;89.27;81.67;;;14.50;99.90;;;;;;5029820;28;20848;-74
2022/09/01 05:18:01;;;;;;;94.93;86.80;;;14.60;99.90;;;;;;5029657;28;20485;-74
2022/09/01 05:20:29;;;;;;;94.50;86.20;;;14.60;99.90;;;;;;5029871;28;20551;-75
2022/09/01 05:22:56;;;;;;;100.13;90.67;;;14.70;99.90;;;;;;5029898;28;20460;-74
2022/09/01 05:25:23;;;;;;;93.50;85.90;;;14.70;99.90;;;;;;5029512;28;20456;-74
2022/09/01 05:27:51;;;;;;;97.23;89.00;;;14.70;99.90;;;;;;5029790;28;20980;-73
2022/09/01 05:30:18;;;;;;;92.00;84.20;;;14.80;99.90;;;;;;5029731;28;20457;-72
2022/09/01 05:32:46;;;;;;;93.73;86.10;;;14.90;99.90;;;;;;5029530;28;20457;-73
2022/09/01 05:35:14;;;;;;;98.60;89.60;;;15.10;99.90;;;;;;5029523;28;20467;-73
2022/09/01 05:37:41;;;;;;;80.33;73.50;;;15.00;99.90;;;;;;5029232;28;21077;-73
2022/09/01 05:40:14;;;;;;;89.00;81.87;;;15.20;99.90;;;;;;5029467;28;20448;-72
2022/09/01 05:42:41;;;;;;;83.27;75.33;;;15.30;99.90;;;;;;5029433;28;20449;-73
2022/09/01 05:45:10;;;;;;;90.33;82.83;;;15.40;99.90;;;;;;5029114;28;20453;-73
2022/09/01 05:47:37;;;;;;;93.90;86.10;;;15.60;99.90;;;;;;5029407;28;20445;-73
2022/09/01 05:50:07;;;;;;;87.40;80.50;;;15.60;99.90;;;;;;5029805;28;20472;-72
2022/09/01 05:52:38;;;;;;;84.67;78.27;;;15.80;99.90;;;;;;5033122;28;20459;-74
2022/09/01 05:55:07;;;;;;;93.63;86.00;;;15.90;99.90;;;;;;5033032;28;20455;-75
2022/09/01 05:57:34;;;;;;;87.03;80.00;;;15.90;99.90;;;;;;5033036;28;20528;-75
2022/09/01 06:00:09;;;;;;;86.10;79.30;;;16.10;99.90;;;;;;5032940;28;20455;-75
2022/09/01 06:02:36;;;;;;;87.40;80.30;;;16.30;99.90;;;;;;5033289;28;20547;-75
2022/09/01 06:05:03;;;;;;;87.93;81.20;;;16.50;99.90;;;;;;5033165;28;20456;-74
2022/09/01 06:07:30;;;;;;;86.07;79.43;;;16.50;99.90;;;;;;5032752;28;20461;-74
2022/09/01 06:09:58;;;;;;;88.80;82.40;;;16.70;99.90;;;;;;5032657;28;20619;-73
2022/09/01 06:12:26;;;;;;;82.63;76.20;;;16.80;99.90;;;;;;5033237;28;20511;-74
2022/09/01 06:14:55;;;;;;;81.00;74.97;;;16.90;99.90;;;;;;5032681;28;20851;-75
2022/09/01 20:24:27;;;;;;;15.60;14.70;;;16.80;99.90;;;;;;5060018;27;1205133;-74
2022/09/01 20:27:00;;;;;;;15.90;14.90;;;17.30;99.90;;;;;;5075772;28;20227;-76
2022/09/01 20:29:33;;;;;;;15.70;14.80;;;17.20;99.90;;;;;;5073809;28;20436;-76
2022/09/01 20:32:02;;;;;;;16.53;15.63;;;17.10;99.90;;;;;;5075743;28;20444;-79
2022/09/01 20:34:37;;;;;;;18.30;17.00;;;17.10;99.90;;;;;;5076998;28;20470;-79
2022/09/01 20:37:12;;;;;;;17.77;16.67;;;17.00;99.90;;;;;;5077694;28;20446;-79
2022/09/01 20:40:00;;;;;;;18.40;17.30;;;17.10;99.90;;;;;;5077487;28;20435;-78
2022/09/01 20:42:36;;;;;;;17.27;15.93;;;17.00;99.90;;;;;;5073223;28;20490;-75
2022/09/01 20:45:09;;;;;;;17.47;15.90;;;17.00;99.90;;;;;;5075193;28;20557;-75
2022/09/01 20:47:36;;;;;;;17.00;16.20;;;17.00;99.90;;;;;;5075577;28;20434;-74
2022/09/01 20:50:11;;;;;;;17.07;15.53;;;16.90;99.90;;;;;;5077368;28;20443;-75
2022/09/01 20:52:46;;;;;;;17.63;16.43;;;16.90;99.90;;;;;;5077013;28;20524;-75
2022/09/01 20:55:19;;;;;;;17.27;16.17;;;16.80;99.90;;;;;;5074994;28;20450;-75
2022/09/01 20:57:54;;;;;;;17.83;16.87;;;16.70;99.90;;;;;;5073077;28;20475;-76
2022/09/01 21:00:38;;;;;;;18.93;17.63;;;16.70;99.90;;;;;;5074952;28;20443;-75
2022/09/01 21:03:13;;;;;;;17.53;16.63;;;16.70;99.90;;;;;;5072593;28;21008;-75
2022/09/01 21:05:48;;;;;;;15.97;14.87;;;16.70;99.90;;;;;;5074807;28;20439;-75
2022/09/01 21:08:40;;;;;;;17.63;16.53;;;16.60;99.90;;;;;;5075724;28;20442;-77
2022/09/01 21:11:30;;;;;;;18.53;17.40;;;16.70;99.90;;;;;;5072829;28;20927;-75
2022/09/01 21:14:11;;;;;;;19.87;18.67;;;16.60;99.90;;;;;;5075423;28;20466;-75
2022/09/01 21:16:49;;;;;;;18.53;17.43;;;16.60;99.90;;;;;;5075723;28;20442;-74
2022/09/01 21:19:21;;;;;;;20.00;18.80;;;16.40;99.90;;;;;;5070365;28;20435;-76
2022/09/01 21:22:00;;;;;;;20.10;18.60;;;16.40;99.90;;;;;;5072723;28;20452;-75
2022/09/01 21:24:27;;;;;;;18.47;17.17;;;16.30;99.90;;;;;;5063256;28;20474;-74
2022/09/01 21:26:56;;;;;;;21.30;20.00;;;16.30;99.90;;;;;;5061897;28;20447;-75
2022/09/01 21:29:36;;;;;;;19.33;18.23;;;16.20;99.90;;;;;;5062996;28;20443;-74
2022/09/01 21:32:03;;;;;;;18.90;17.60;;;16.20;99.90;;;;;;5063369;28;20864;-76
2022/09/01 21:34:30;;;;;;;19.00;17.67;;;16.30;99.90;;;;;;5061953;28;20436;-78
2022/09/01 21:36:57;;;;;;;19.50;18.40;;;16.30;99.90;;;;;;5061182;28;20522;-79
2022/09/01 21:39:23;;;;;;;20.03;18.63;;;16.20;99.90;;;;;;5062932;28;20439;-78
2022/09/01 21:41:50;;;;;;;19.83;18.43;;;16.20;99.90;;;;;;5061716;28;20455;-76
2022/09/01 21:44:19;;;;;;;18.83;17.50;;;16.20;99.90;;;;;;5061556;28;20458;-77
2022/09/01 21:46:46;;;;;;;20.67;19.27;;;16.20;99.90;;;;;;5059375;28;20451;-76
2022/09/01 21:49:13;;;;;;;19.53;18.23;;;16.10;99.90;;;;;;5062199;28;20448;-76
2022/09/01 21:51:41;;;;;;;19.77;18.57;;;16.00;99.90;;;;;;5060994;28;20464;-75
2022/09/01 21:54:08;;;;;;;18.70;17.53;;;16.00;99.90;;;;;;5063375;28;20445;-75
2022/09/01 21:56:35;;;;;;;19.67;18.60;;;15.90;99.90;;;;;;5062390;28;20455;-75
2022/09/01 21:59:02;;;;;;;18.47;17.37;;;15.90;99.90;;;;;;5061354;28;20440;-76
2022/09/01 22:01:30;;;;;;;19.83;18.63;;;15.70;99.90;;;;;;5063630;28;20927;-77
2022/09/01 22:03:58;;;;;;;19.97;18.57;;;15.60;99.90;;;;;;5060604;28;20529;-76
2022/09/01 22:06:24;;;;;;;20.37;19.00;;;15.70;99.90;;;;;;5057607;28;20448;-76
2022/09/01 22:08:51;;;;;;;20.97;19.77;;;15.60;99.90;;;;;;5061372;28;20447;-76
2022/09/01 22:11:19;;;;;;;20.90;19.33;;;15.60;99.90;;;;;;5062660;28;20450;-76
2022/09/01 22:13:45;;;;;;;20.30;18.93;;;15.60;99.90;;;;;;5058089;28;20444;-77
2022/09/01 22:16:17;;;;;;;21.40;20.17;;;15.50;99.90;;;;;;5060983;28;20465;-77
2022/09/01 22:18:45;;;;;;;20.47;18.90;;;15.50;99.90;;;;;;5062468;28;20450;-77
2022/09/01 22:21:13;;;;;;;21.10;19.90;;;15.50;99.90;;;;;;5061292;28;20444;-78
2022/09/01 22:23:40;;;;;;;21.30;20.00;;;15.50;99.90;;;;;;5060206;28;20518;-79
2022/09/01 22:26:07;;;;;;;22.47;20.73;;;15.50;99.90;;;;;;5058848;28;20970;-79
2022/09/01 22:28:34;;;;;;;22.53;20.70;;;15.50;99.90;;;;;;5061513;28;20439;-78
2022/09/01 22:31:02;;;;;;;21.60;20.07;;;15.40;99.90;;;;;;5062883;28;20442;-78
2022/09/01 22:33:30;;;;;;;22.00;20.70;;;15.40;99.90;;;;;;5061118;28;20440;-78
2022/09/01 22:35:58;;;;;;;22.53;20.93;;;15.40;99.90;;;;;;5059939;28;20454;-78
2022/09/01 22:38:25;;;;;;;23.37;21.97;;;15.40;99.90;;;;;;5061959;28;20576;-78
2022/09/01 22:40:54;;;;;;;23.37;21.63;;;15.50;99.90;;;;;;5060776;28;20448;-77
2022/09/01 22:43:22;;;;;;;20.87;19.37;;;15.50;99.90;;;;;;5059531;28;20549;-77
2022/09/01 22:45:50;;;;;;;21.67;19.83;;;15.40;99.90;;;;;;5061234;28;20458;-78
2022/09/01 22:48:18;;;;;;;20.90;19.70;;;15.30;99.90;;;;;;5061512;28;20539;-77
2022/09/01 22:50:46;;;;;;;23.70;21.90;;;15.30;99.90;;;;;;5057257;28;20451;-77
2022/09/01 22:53:16;;;;;;;22.00;20.40;;;15.20;99.90;;;;;;5060551;28;20442;-79
2022/09/01 22:55:48;;;;;;;22.47;20.80;;;15.20;99.90;;;;;;5061839;28;20980;-77
2022/09/01 22:58:16;;;;;;;22.63;21.07;;;15.20;99.90;;;;;;5061834;28;20471;-77
2022/09/01 23:00:46;;;;;;;21.60;20.20;;;15.20;99.90;;;;;;5062742;28;20447;-78
2022/09/01 23:03:13;;;;;;;20.90;19.50;;;15.10;99.90;;;;;;5061079;28;20480;-76
2022/09/01 23:05:40;;;;;;;22.00;20.73;;;14.90;99.90;;;;;;5059730;28;20477;-76
2022/09/01 23:08:08;;;;;;;21.13;19.93;;;14.90;99.90;;;;;;5056081;28;20435;-75
2022/09/01 23:10:36;;;;;;;20.93;19.83;;;14.80;99.90;;;;;;5060661;28;20448;-75
2022/09/01 23:13:03;;;;;;;22.83;21.20;;;14.80;99.90;;;;;;5059336;28;20475;-75
2022/09/01 23:15:30;;;;;;;25.53;23.47;;;14.80;99.90;;;;;;5060821;28;20469;-75
2022/09/01 23:17:56;;;;;;;23.50;21.53;;;14.80;99.90;;;;;;5060316;28;20440;-75
